SHT12H EGLL-EGNT
Flight info
| Callsign | SHT12H |
|---|---|
| Flight time | N/A |
| Altitude | 32000 |
| Route | ULTIB T420 AKUPA UY250 RIMTO |
| Aircraft | A319/M-SDE3FGHIRWY/LB1 |
Departure
| Time | 2026-05-05 16:16 |
|---|---|
| Airport | London Heathrow Airport (EGLL) |
Arrival
| Time | N/A |
|---|---|
| Airport | Newcastle International Airport (EGNT) |
| Time | Latitude | Longitude | Altitude | Speed | Heading |
|---|---|---|---|---|---|
| 2026-05-05 15:33 | 51.47087 | -0.48587 | 90 ft | 0 kts | 269° |
| 2026-05-05 16:06 | 51.47087 | -0.48560 | 88 ft | 4 kts | 266° |
| 2026-05-05 16:06 | 51.47091 | -0.48517 | 86 ft | 4 kts | 252° |
| 2026-05-05 16:07 | 51.47102 | -0.48482 | 91 ft | 4 kts | 216° |
| 2026-05-05 16:07 | 51.47116 | -0.48473 | 89 ft | 1 kts | 180° |
| 2026-05-05 16:07 | 51.47119 | -0.48473 | 89 ft | 0 kts | 180° |
| 2026-05-05 16:09 | 51.47118 | -0.48473 | 86 ft | 0 kts | 180° |
| 2026-05-05 16:10 | 51.47099 | -0.48467 | 89 ft | 5 kts | 161° |
| 2026-05-05 16:11 | 51.47051 | -0.48472 | 87 ft | 9 kts | 180° |
| 2026-05-05 16:11 | 51.46828 | -0.48469 | 86 ft | 5 kts | 179° |
| 2026-05-05 16:12 | 51.46817 | -0.48469 | 86 ft | 1 kts | 180° |
| 2026-05-05 16:12 | 51.46764 | -0.48469 | 86 ft | 6 kts | 180° |
| 2026-05-05 16:13 | 51.46560 | -0.48466 | 87 ft | 10 kts | 180° |
| 2026-05-05 16:13 | 51.46495 | -0.48448 | 88 ft | 11 kts | 144° |
| 2026-05-05 16:13 | 51.46479 | -0.48334 | 87 ft | 11 kts | 91° |
| 2026-05-05 16:14 | 51.46480 | -0.48246 | 89 ft | 0 kts | 89° |
| 2026-05-05 16:15 | 51.46479 | -0.47869 | 87 ft | 64 kts | 89° |
| 2026-05-05 16:15 | 51.46490 | -0.45198 | 100 ft | 170 kts | 89° |
| 2026-05-05 16:16 | 51.46524 | -0.41540 | 1578 ft | 165 kts | 76° |
| 2026-05-05 16:16 | 51.48090 | -0.38231 | 2263 ft | 213 kts | 48° |
| 2026-05-05 16:17 | 51.50176 | -0.34239 | 3615 ft | 250 kts | 49° |
| 2026-05-05 16:17 | 51.51401 | -0.32196 | 4580 ft | 257 kts | 35° |
| 2026-05-05 16:18 | 51.54881 | -0.31346 | 6702 ft | 263 kts | 352° |
| 2026-05-05 16:18 | 51.56710 | -0.31795 | 7675 ft | 269 kts | 351° |
| 2026-05-05 16:18 | 51.60474 | -0.32891 | 9585 ft | 280 kts | 346° |
| 2026-05-05 16:19 | 51.62384 | -0.33695 | 10295 ft | 293 kts | 345° |
| 2026-05-05 16:19 | 51.63717 | -0.34290 | 10587 ft | 308 kts | 344° |
| 2026-05-05 16:19 | 51.68041 | -0.36271 | 11778 ft | 331 kts | 344° |
| 2026-05-05 16:20 | 51.72522 | -0.38318 | 12921 ft | 338 kts | 344° |
| 2026-05-05 16:20 | 51.77061 | -0.40372 | 13026 ft | 339 kts | 345° |
| 2026-05-05 16:21 | 51.81495 | -0.42859 | 12975 ft | 338 kts | 331° |
| 2026-05-05 16:22 | 51.87573 | -0.48751 | 12974 ft | 340 kts | 328° |
| 2026-05-05 16:22 | 51.91630 | -0.52698 | 12974 ft | 340 kts | 328° |
| 2026-05-05 16:23 | 51.95706 | -0.56668 | 13838 ft | 345 kts | 328° |
| 2026-05-05 16:23 | 51.97773 | -0.58686 | 14502 ft | 349 kts | 328° |
| 2026-05-05 16:23 | 52.01975 | -0.62805 | 15853 ft | 357 kts | 328° |
| 2026-05-05 16:24 | 52.04106 | -0.64895 | 16546 ft | 360 kts | 328° |
| 2026-05-05 16:24 | 52.06267 | -0.67014 | 17239 ft | 364 kts | 328° |
| 2026-05-05 16:24 | 52.10615 | -0.71289 | 18553 ft | 372 kts | 327° |
| 2026-05-05 16:25 | 52.12837 | -0.73475 | 19171 ft | 375 kts | 327° |
| 2026-05-05 16:25 | 52.17333 | -0.77903 | 20416 ft | 381 kts | 327° |
| 2026-05-05 16:25 | 52.19608 | -0.80152 | 21039 ft | 384 kts | 327° |
| 2026-05-05 16:26 | 52.24203 | -0.84706 | 22254 ft | 389 kts | 326° |
| 2026-05-05 16:26 | 52.28868 | -0.89340 | 23444 ft | 396 kts | 326° |
| 2026-05-05 16:27 | 52.31230 | -0.91686 | 23919 ft | 399 kts | 326° |
| 2026-05-05 16:27 | 52.33613 | -0.94053 | 24380 ft | 403 kts | 326° |
| 2026-05-05 16:27 | 52.36019 | -0.96450 | 24829 ft | 406 kts | 326° |
| 2026-05-05 16:27 | 52.38437 | -0.98862 | 25267 ft | 409 kts | 326° |
| 2026-05-05 16:28 | 52.40879 | -1.01302 | 25742 ft | 412 kts | 326° |
| 2026-05-05 16:28 | 52.43331 | -1.03761 | 26206 ft | 415 kts | 326° |
| 2026-05-05 16:28 | 52.45859 | -1.06101 | 26652 ft | 420 kts | 332° |
| 2026-05-05 16:28 | 52.48620 | -1.07765 | 27096 ft | 427 kts | 342° |
| 2026-05-05 16:29 | 52.51561 | -1.08634 | 27537 ft | 433 kts | 353° |
| 2026-05-05 16:29 | 52.54589 | -1.08664 | 27984 ft | 438 kts | 1° |
| 2026-05-05 16:29 | 52.57647 | -1.08414 | 28419 ft | 442 kts | 1° |
| 2026-05-05 16:29 | 52.60728 | -1.08181 | 28847 ft | 445 kts | 0° |
| 2026-05-05 16:30 | 52.62778 | -1.08033 | 29123 ft | 447 kts | 0° |